Time;durP1;ratioP1;P1;durP2;ratioP2;P2;SDS_P1;SDS_P2;PMS_P1;PMS_P2;Temp;Humidity;BMP_temperature;BMP_pressure;BME280_temperature;BME280_humidity;BME280_pressure;Samples;Min_cycle;Max_cycle;Signal;HPM_P1;HPM_P2
2023/12/26 00:02:46;;;;;;;0.50;0.30;;;;;;;;;;10397090;28;20514;-74
2023/12/26 00:07:50;;;;;;;0.20;0.20;;;;;;;;;;10390651;28;20064;-74
2023/12/26 00:12:53;;;;;;;0.20;0.20;;;;;;;;;;10395966;28;20430;-74
2023/12/26 00:17:58;;;;;;;0.20;0.20;;;;;;;;;;10400626;28;20052;-74
2023/12/26 00:23:01;;;;;;;0.20;0.20;;;;;;;;;;10403110;28;20120;-75
2023/12/26 00:28:05;;;;;;;1.48;0.20;;;;;;;;;;10393165;28;20046;-75
2023/12/26 00:33:09;;;;;;;0.28;0.22;;;;;;;;;;10395239;28;20042;-74
2023/12/26 00:38:12;;;;;;;0.80;0.30;;;;;;;;;;10384624;28;20743;-74
2023/12/26 00:43:16;;;;;;;0.43;0.30;;;;;;;;;;10392077;28;20068;-74
2023/12/26 00:48:20;;;;;;;0.30;0.25;;;;;;;;;;10377887;28;20071;-74
2023/12/26 00:53:24;;;;;;;0.20;0.20;;;;;;;;;;10388670;28;20040;-74
2023/12/26 00:58:27;;;;;;;0.10;0.10;;;;;;;;;;10395253;28;20045;-75
2023/12/26 01:03:32;;;;;;;0.10;0.10;;;;;;;;;;10410379;23;20045;-74
2023/12/26 01:08:35;;;;;;;0.20;0.20;;;;;;;;;;10412048;28;20145;-73
2023/12/26 01:13:38;;;;;;;0.10;0.10;;;;;;;;;;10416112;28;20041;-74
2023/12/26 01:18:43;;;;;;;0.20;0.20;;;;;;;;;;10413390;28;20049;-73
2023/12/26 01:23:47;;;;;;;0.20;0.20;;;;;;;;;;10400203;28;20045;-73
2023/12/26 01:28:50;;;;;;;0.10;0.10;;;;;;;;;;10409283;28;20086;-73
2023/12/26 01:33:54;;;;;;;0.20;0.20;;;;;;;;;;10407079;28;20052;-73
2023/12/26 01:38:58;;;;;;;0.20;0.20;;;;;;;;;;10398704;28;20474;-74
2023/12/26 01:44:01;;;;;;;0.32;0.30;;;;;;;;;;10411870;28;20033;-73
2023/12/26 01:49:06;;;;;;;0.65;0.20;;;;;;;;;;10427544;28;20105;-73
2023/12/26 01:54:09;;;;;;;0.98;0.47;;;;;;;;;;10416803;28;20037;-74
2023/12/26 01:59:13;;;;;;;3.97;1.00;;;;;;;;;;10415886;28;20053;-74
2023/12/26 02:04:18;;;;;;;2.50;0.82;;;;;;;;;;10413507;28;20050;-73
2023/12/26 02:09:22;;;;;;;0.80;0.57;;;;;;;;;;10417468;28;20504;-74
2023/12/26 02:14:25;;;;;;;1.25;0.70;;;;;;;;;;10410090;28;20040;-74
2023/12/26 02:19:42;;;;;;;2.28;0.80;;;;;;;;;;10405883;28;20046;-74
2023/12/26 02:24:47;;;;;;;4.00;0.90;;;;;;;;;;10401886;28;20038;-73
2023/12/26 02:29:53;;;;;;;3.20;1.00;;;;;;;;;;10403478;28;20128;-74
2023/12/26 02:35:00;;;;;;;1.97;1.00;;;;;;;;;;10411692;28;20557;-73
2023/12/26 02:40:06;;;;;;;5.07;1.23;;;;;;;;;;10425248;28;20041;-74
2023/12/26 02:45:10;;;;;;;4.97;1.43;;;;;;;;;;10411521;28;20144;-74
2023/12/26 02:50:13;;;;;;;2.90;1.08;;;;;;;;;;10415595;28;20854;-74
2023/12/26 02:55:19;;;;;;;4.38;1.20;;;;;;;;;;10420258;28;20072;-73
2023/12/26 03:00:22;;;;;;;2.78;0.90;;;;;;;;;;10394731;28;20136;-74
2023/12/26 03:05:26;;;;;;;4.88;1.20;;;;;;;;;;10407670;28;20040;-73
2023/12/26 03:10:30;;;;;;;5.45;1.27;;;;;;;;;;10417271;28;20068;-74
2023/12/26 03:15:34;;;;;;;2.63;1.10;;;;;;;;;;10416654;28;20037;-74
2023/12/26 03:20:37;;;;;;;3.58;1.30;;;;;;;;;;10406516;28;20124;-73
2023/12/26 03:25:43;;;;;;;4.63;1.42;;;;;;;;;;10406685;28;20029;-74
2023/12/26 03:30:46;;;;;;;5.13;1.47;;;;;;;;;;10402372;28;20115;-73
2023/12/26 03:35:49;;;;;;;7.32;1.30;;;;;;;;;;10415905;28;20371;-74
2023/12/26 03:40:55;;;;;;;5.60;1.77;;;;;;;;;;10404986;28;20512;-74
2023/12/26 03:45:58;;;;;;;4.38;1.45;;;;;;;;;;10413198;28;20466;-74
2023/12/26 03:51:01;;;;;;;5.65;1.10;;;;;;;;;;10408125;28;20740;-74
2023/12/26 03:56:06;;;;;;;4.70;1.23;;;;;;;;;;10410202;28;20136;-73
2023/12/26 04:01:12;;;;;;;3.40;1.20;;;;;;;;;;10409511;28;20049;-74
2023/12/26 04:06:15;;;;;;;6.57;1.07;;;;;;;;;;10423745;28;20120;-73
2023/12/26 04:11:20;;;;;;;2.53;1.15;;;;;;;;;;10415270;28;20303;-73
2023/12/26 04:16:23;;;;;;;2.55;1.17;;;;;;;;;;10407153;28;20049;-73
2023/12/26 04:21:27;;;;;;;3.30;1.30;;;;;;;;;;10407771;28;20103;-73
2023/12/26 04:26:32;;;;;;;2.85;1.00;;;;;;;;;;10410381;28;20057;-74
2023/12/26 04:31:35;;;;;;;4.78;1.20;;;;;;;;;;10411530;28;20451;-73
2023/12/26 04:36:38;;;;;;;4.05;1.02;;;;;;;;;;10416840;28;20580;-73
2023/12/26 04:41:43;;;;;;;3.63;1.02;;;;;;;;;;10412333;28;20136;-73
2023/12/26 04:46:46;;;;;;;3.40;1.25;;;;;;;;;;10419264;28;20033;-73
2023/12/26 04:51:50;;;;;;;2.28;0.90;;;;;;;;;;10413743;28;20103;-73
2023/12/26 04:56:55;;;;;;;4.00;1.20;;;;;;;;;;10415159;28;20534;-73
2023/12/26 05:01:58;;;;;;;3.28;1.45;;;;;;;;;;10396526;28;20332;-74
2023/12/26 05:07:02;;;;;;;3.53;1.17;;;;;;;;;;10415138;28;20553;-74
2023/12/26 05:12:08;;;;;;;5.47;0.98;;;;;;;;;;10417319;28;20059;-73
2023/12/26 05:17:12;;;;;;;4.22;1.05;;;;;;;;;;10428991;28;20072;-74
2023/12/26 05:22:16;;;;;;;3.83;1.25;;;;;;;;;;10406917;28;20639;-73
2023/12/26 05:27:21;;;;;;;4.25;1.17;;;;;;;;;;10412091;28;20049;-74
2023/12/26 05:32:24;;;;;;;7.43;1.48;;;;;;;;;;10414550;28;20048;-73
2023/12/26 05:37:28;;;;;;;2.60;1.10;;;;;;;;;;10414848;28;20048;-74
2023/12/26 05:42:33;;;;;;;3.17;0.90;;;;;;;;;;10412009;28;20073;-74
2023/12/26 05:47:36;;;;;;;3.08;1.30;;;;;;;;;;10416657;28;20775;-74
2023/12/26 05:52:40;;;;;;;3.85;1.25;;;;;;;;;;10411781;28;20053;-74
2023/12/26 05:57:44;;;;;;;3.63;1.40;;;;;;;;;;10406792;28;20121;-73
2023/12/26 06:02:48;;;;;;;3.05;1.05;;;;;;;;;;10403960;28;20155;-75
2023/12/26 06:07:52;;;;;;;3.20;1.13;;;;;;;;;;10407255;28;20149;-74
2023/12/26 06:12:57;;;;;;;5.18;1.55;;;;;;;;;;10429259;28;20041;-73
2023/12/26 06:18:01;;;;;;;4.10;0.82;;;;;;;;;;10422605;28;20037;-74
2023/12/26 06:23:06;;;;;;;3.88;1.25;;;;;;;;;;10409367;28;20128;-74
2023/12/26 06:28:10;;;;;;;3.55;1.45;;;;;;;;;;10422664;28;20140;-74
2023/12/26 06:33:14;;;;;;;1.92;0.90;;;;;;;;;;10412114;28;20045;-74
2023/12/26 06:38:18;;;;;;;4.93;1.52;;;;;;;;;;10407904;28;20392;-74
2023/12/26 06:43:22;;;;;;;5.22;1.20;;;;;;;;;;10423588;28;20049;-74
2023/12/26 06:48:25;;;;;;;3.90;1.00;;;;;;;;;;10426225;28;20044;-74
2023/12/26 06:53:29;;;;;;;4.20;0.95;;;;;;;;;;10413800;28;20033;-73
2023/12/26 06:58:34;;;;;;;3.70;1.08;;;;;;;;;;10415755;28;20045;-74
2023/12/26 07:03:37;;;;;;;3.15;1.05;;;;;;;;;;10418628;23;20049;-73
2023/12/26 07:08:41;;;;;;;3.95;1.10;;;;;;;;;;10379114;28;20038;-73
2023/12/26 07:13:45;;;;;;;5.85;1.70;;;;;;;;;;10389424;28;20045;-73
2023/12/26 07:18:50;;;;;;;5.00;1.30;;;;;;;;;;10398114;28;20044;-73
2023/12/26 07:23:53;;;;;;;3.08;0.95;;;;;;;;;;10392209;28;20051;-73
2023/12/26 07:28:57;;;;;;;2.80;1.13;;;;;;;;;;10397224;28;20047;-72
2023/12/26 07:34:04;;;;;;;4.43;1.20;;;;;;;;;;10395643;28;20049;-73
2023/12/26 07:39:07;;;;;;;;;;;;;;;;;;10389718;28;20469;-73
2023/12/26 07:44:12;;;;;;;2.10;1.17;;;;;;;;;;10391148;28;19925;-73
2023/12/26 07:49:15;;;;;;;4.35;1.10;;;;;;;;;;10384316;28;20055;-73
2023/12/26 07:54:18;;;;;;;5.20;1.63;;;;;;;;;;10394690;28;20053;-73
2023/12/26 07:59:23;;;;;;;5.68;1.80;;;;;;;;;;10395286;28;20040;-73
2023/12/26 08:04:26;;;;;;;2.67;1.10;;;;;;;;;;10397394;28;20037;-73
2023/12/26 08:09:29;;;;;;;2.80;0.90;;;;;;;;;;10387671;28;20037;-73
2023/12/26 08:14:34;;;;;;;4.82;1.60;;;;;;;;;;10392082;28;20053;-73
2023/12/26 08:19:38;;;;;;;1.42;0.70;;;;;;;;;;10390107;28;20624;-73
2023/12/26 08:24:41;;;;;;;1.75;0.80;;;;;;;;;;10394791;28;20088;-73
2023/12/26 08:29:45;;;;;;;2.75;1.48;;;;;;;;;;10387894;28;20052;-73
2023/12/26 08:34:49;;;;;;;4.25;1.55;;;;;;;;;;10383519;28;20117;-73
2023/12/26 08:39:52;;;;;;;2.95;1.13;;;;;;;;;;10392063;28;20045;-73
2023/12/26 08:44:57;;;;;;;2.30;1.00;;;;;;;;;;10395001;28;20049;-73
2023/12/26 08:50:00;;;;;;;3.28;0.98;;;;;;;;;;10392181;28;20144;-73
2023/12/26 08:55:04;;;;;;;2.30;0.95;;;;;;;;;;10395036;28;20135;-73
2023/12/26 09:00:12;;;;;;;3.15;1.27;;;;;;;;;;10393961;28;20504;-73
2023/12/26 09:05:16;;;;;;;2.78;0.82;;;;;;;;;;10390932;28;20066;-73
2023/12/26 09:10:19;;;;;;;1.98;0.75;;;;;;;;;;10391927;28;20053;-73
2023/12/26 09:15:23;;;;;;;0.98;0.65;;;;;;;;;;10377453;28;20370;-73
2023/12/26 09:20:27;;;;;;;3.45;0.68;;;;;;;;;;10386234;28;20125;-73
2023/12/26 09:25:30;;;;;;;1.90;0.70;;;;;;;;;;10378841;28;20527;-73
2023/12/26 09:30:35;;;;;;;2.55;1.35;;;;;;;;;;10371471;28;20088;-73
2023/12/26 09:35:38;;;;;;;2.80;1.50;;;;;;;;;;10382045;28;20069;-73
2023/12/26 09:40:42;;;;;;;3.85;2.28;;;;;;;;;;10376537;28;20088;-73
2023/12/26 09:45:47;;;;;;;2.35;1.05;;;;;;;;;;10382394;28;20046;-73
2023/12/26 09:50:53;;;;;;;2.42;1.10;;;;;;;;;;10381150;28;20042;-73
2023/12/26 09:55:56;;;;;;;2.35;1.25;;;;;;;;;;10386590;28;20120;-73
2023/12/26 10:01:02;;;;;;;2.45;0.85;;;;;;;;;;10380709;28;20144;-73
2023/12/26 10:06:15;;;;;;;2.53;1.40;;;;;;;;;;10369376;28;20128;-74
2023/12/26 10:11:20;;;;;;;2.58;1.13;;;;;;;;;;10382731;28;20041;-74
2023/12/26 10:16:25;;;;;;;1.25;0.90;;;;;;;;;;10379100;28;20127;-74
2023/12/26 10:21:29;;;;;;;1.48;1.00;;;;;;;;;;10389888;28;20121;-74
2023/12/26 10:26:33;;;;;;;2.17;1.00;;;;;;;;;;10388153;28;20041;-74
2023/12/26 10:31:38;;;;;;;2.08;0.80;;;;;;;;;;10395964;28;20052;-74
2023/12/26 10:36:45;;;;;;;0.55;0.55;;;;;;;;;;10377445;28;20076;-74
2023/12/26 10:41:49;;;;;;;2.53;1.40;;;;;;;;;;10393278;28;20164;-74
2023/12/26 10:46:55;;;;;;;1.63;0.82;;;;;;;;;;10392829;28;20136;-74
2023/12/26 10:52:02;;;;;;;1.00;0.68;;;;;;;;;;10388322;28;20598;-74
2023/12/26 10:57:08;;;;;;;3.80;1.52;;;;;;;;;;10387752;28;20140;-74
2023/12/26 11:02:13;;;;;;;3.67;1.88;;;;;;;;;;10379342;28;20545;-74
2023/12/26 11:07:17;;;;;;;1.35;0.88;;;;;;;;;;10391989;28;20042;-74
2023/12/26 11:12:22;;;;;;;1.30;0.73;;;;;;;;;;10381155;28;20045;-74
2023/12/26 11:17:27;;;;;;;1.57;1.10;;;;;;;;;;10380690;28;20037;-74
2023/12/26 11:22:31;;;;;;;1.40;0.57;;;;;;;;;;10385883;28;20081;-74
2023/12/26 11:27:34;;;;;;;1.58;1.00;;;;;;;;;;10395566;28;20055;-74
2023/12/26 11:32:38;;;;;;;2.97;0.82;;;;;;;;;;10387544;28;20091;-74
2023/12/26 11:37:42;;;;;;;1.83;0.68;;;;;;;;;;10377464;28;20123;-74
2023/12/26 11:42:46;;;;;;;1.65;0.60;;;;;;;;;;10385390;28;20053;-74
2023/12/26 11:53:20;;;;;;;1.02;0.68;;;;;;;;;;10394281;28;20049;-72
2023/12/26 11:58:24;;;;;;;0.98;0.50;;;;;;;;;;10382910;28;20037;-73
2023/12/26 12:03:27;;;;;;;1.65;0.70;;;;;;;;;;10388294;28;20061;-73
2023/12/26 12:08:31;;;;;;;1.98;0.80;;;;;;;;;;10386716;28;20033;-73
2023/12/26 12:13:35;;;;;;;1.63;0.65;;;;;;;;;;10395804;28;20056;-73
2023/12/26 12:18:38;;;;;;;1.05;0.50;;;;;;;;;;10393534;28;20041;-73
2023/12/26 12:23:46;;;;;;;2.58;0.65;;;;;;;;;;10394244;28;20639;-73
2023/12/26 12:29:03;;;;;;;1.58;0.90;;;;;;;;;;10390054;28;20037;-73
2023/12/26 12:34:12;;;;;;;1.73;0.80;;;;;;;;;;10385527;28;20140;-73
2023/12/26 12:39:17;;;;;;;1.33;0.70;;;;;;;;;;10393268;28;20044;-73
2023/12/26 12:44:20;;;;;;;2.10;0.70;;;;;;;;;;10394965;28;20136;-73
2023/12/26 12:49:23;;;;;;;2.17;0.70;;;;;;;;;;10393433;28;20240;-73
2023/12/26 12:54:29;;;;;;;2.85;0.68;;;;;;;;;;10390550;28;20125;-73
2023/12/26 12:59:32;;;;;;;3.25;1.05;;;;;;;;;;10396071;28;20105;-73
2023/12/26 13:04:36;;;;;;;3.03;0.80;;;;;;;;;;10399240;28;20049;-73
2023/12/26 13:09:41;;;;;;;2.65;1.10;;;;;;;;;;10399192;28;20051;-73
2023/12/26 13:14:45;;;;;;;1.73;0.63;;;;;;;;;;10395408;28;20068;-75
2023/12/26 13:19:48;;;;;;;4.22;1.27;;;;;;;;;;10386914;28;20045;-73
2023/12/26 13:24:53;;;;;;;1.80;0.85;;;;;;;;;;10393922;28;20687;-73
2023/12/26 13:36:01;;;;;;;2.45;0.77;;;;;;;;;;10385720;28;20057;-73
2023/12/26 13:41:05;;;;;;;6.13;1.23;;;;;;;;;;10393107;28;20448;-73
2023/12/26 13:46:08;;;;;;;2.40;0.75;;;;;;;;;;10393046;28;20072;-73
2023/12/26 13:51:12;;;;;;;3.08;1.00;;;;;;;;;;10382840;28;20654;-73
2023/12/26 13:56:17;;;;;;;2.17;0.80;;;;;;;;;;10374768;28;20041;-73
2023/12/26 14:01:20;;;;;;;5.90;1.25;;;;;;;;;;10390080;28;20052;-73
2023/12/26 14:06:26;;;;;;;2.53;0.80;;;;;;;;;;10394725;28;20065;-73
2023/12/26 14:11:30;;;;;;;3.35;0.50;;;;;;;;;;10392903;28;20045;-73
2023/12/26 14:16:33;;;;;;;3.47;1.02;;;;;;;;;;10390803;28;20439;-73
2023/12/26 14:21:37;;;;;;;3.17;0.90;;;;;;;;;;10373792;28;20567;-73
2023/12/26 14:26:42;;;;;;;2.42;0.80;;;;;;;;;;10383514;28;20048;-73
2023/12/26 14:31:45;;;;;;;0.85;0.40;;;;;;;;;;10396973;28;20056;-73
2023/12/26 14:36:49;;;;;;;2.08;0.70;;;;;;;;;;10401528;28;20052;-73
2023/12/26 14:41:54;;;;;;;3.60;0.90;;;;;;;;;;10391149;28;20141;-73
2023/12/26 14:46:57;;;;;;;3.15;1.10;;;;;;;;;;10396531;28;20583;-73
2023/12/26 14:52:01;;;;;;;2.40;0.70;;;;;;;;;;10399040;28;20042;-73
2023/12/26 14:57:05;;;;;;;0.90;0.57;;;;;;;;;;10405342;28;20445;-73
2023/12/26 15:02:09;;;;;;;3.13;1.00;;;;;;;;;;10391141;28;20440;-73
2023/12/26 15:07:12;;;;;;;1.30;0.68;;;;;;;;;;10382074;28;20053;-73
2023/12/26 15:12:17;;;;;;;1.73;0.73;;;;;;;;;;10386159;28;20048;-73
2023/12/26 15:17:20;;;;;;;2.05;0.85;;;;;;;;;;10387915;28;20560;-73
2023/12/26 15:22:24;;;;;;;2.05;0.68;;;;;;;;;;10397437;28;20117;-73
2023/12/26 15:27:28;;;;;;;3.08;1.10;;;;;;;;;;10372973;28;20067;-73
2023/12/26 15:32:32;;;;;;;6.13;1.30;;;;;;;;;;10381093;28;20053;-73
2023/12/26 15:37:37;;;;;;;5.53;1.40;;;;;;;;;;10398702;28;20297;-73
2023/12/26 15:42:42;;;;;;;1.38;0.77;;;;;;;;;;10378118;28;20056;-73
2023/12/26 15:47:45;;;;;;;3.42;1.15;;;;;;;;;;10382489;28;20040;-73
2023/12/26 15:52:49;;;;;;;1.55;0.90;;;;;;;;;;10384568;28;20057;-73
2023/12/26 15:57:54;;;;;;;2.47;1.02;;;;;;;;;;10378701;28;20517;-73
2023/12/26 16:02:57;;;;;;;2.90;0.65;;;;;;;;;;10397313;28;20614;-73
2023/12/26 16:08:03;;;;;;;1.52;0.70;;;;;;;;;;10379807;28;20507;-73
2023/12/26 16:13:07;;;;;;;3.53;1.38;;;;;;;;;;10372164;28;20776;-73
2023/12/26 16:18:11;;;;;;;1.88;1.10;;;;;;;;;;10374652;28;20418;-73
2023/12/26 16:23:14;;;;;;;3.90;1.50;;;;;;;;;;10384371;28;20045;-73
2023/12/26 16:28:19;;;;;;;4.47;1.70;;;;;;;;;;10389889;28;20513;-73
2023/12/26 16:33:22;;;;;;;2.88;1.30;;;;;;;;;;10391912;28;20044;-73
2023/12/26 16:38:25;;;;;;;6.00;2.00;;;;;;;;;;10383272;28;20053;-73
2023/12/26 16:43:30;;;;;;;3.40;1.50;;;;;;;;;;10384052;28;20120;-73
2023/12/26 16:48:33;;;;;;;4.03;1.45;;;;;;;;;;10393532;28;20109;-73
2023/12/26 16:53:39;;;;;;;4.75;1.20;;;;;;;;;;10391175;28;20526;-73
2023/12/26 16:58:43;;;;;;;1.95;0.93;;;;;;;;;;10391418;28;20137;-73
2023/12/26 17:03:46;;;;;;;1.75;0.95;;;;;;;;;;10395689;28;20048;-73
2023/12/26 17:08:50;;;;;;;2.33;1.08;;;;;;;;;;10387958;28;20531;-73
2023/12/26 17:13:54;;;;;;;6.10;2.30;;;;;;;;;;10373345;28;20045;-73
2023/12/26 17:18:58;;;;;;;6.25;4.03;;;;;;;;;;10382087;28;20553;-73
2023/12/26 17:24:02;;;;;;;13.10;6.60;;;;;;;;;;10371349;28;20156;-73
2023/12/26 17:29:06;;;;;;;9.63;5.65;;;;;;;;;;10383057;28;20065;-73
2023/12/26 17:34:10;;;;;;;7.18;3.83;;;;;;;;;;10392598;28;20133;-73
2023/12/26 17:39:13;;;;;;;6.25;3.38;;;;;;;;;;10387165;28;20056;-73
2023/12/26 17:44:18;;;;;;;5.80;3.00;;;;;;;;;;10391538;28;20112;-73
2023/12/26 17:49:22;;;;;;;8.70;4.43;;;;;;;;;;10388241;28;20132;-73
2023/12/26 17:54:25;;;;;;;5.43;3.28;;;;;;;;;;10390528;28;20453;-73
2023/12/26 17:59:30;;;;;;;5.53;3.33;;;;;;;;;;10372797;28;20125;-73
2023/12/26 18:04:34;;;;;;;4.75;3.60;;;;;;;;;;10390541;28;20042;-73
2023/12/26 18:09:37;;;;;;;4.30;2.10;;;;;;;;;;10397592;28;20132;-73
2023/12/26 18:14:42;;;;;;;2.58;1.27;;;;;;;;;;10388576;28;20482;-73
2023/12/26 18:19:45;;;;;;;3.50;1.65;;;;;;;;;;10386241;28;20037;-73
2023/12/26 18:24:49;;;;;;;3.25;1.23;;;;;;;;;;10398974;28;20506;-73
2023/12/26 18:29:54;;;;;;;3.15;1.80;;;;;;;;;;10378434;28;20124;-73
2023/12/26 18:34:57;;;;;;;6.25;2.28;;;;;;;;;;10388682;28;20042;-73
2023/12/26 18:40:00;;;;;;;4.20;1.58;;;;;;;;;;10393051;28;20041;-73
2023/12/26 18:45:07;;;;;;;5.70;1.95;;;;;;;;;;10386234;28;20041;-73
2023/12/26 18:50:10;;;;;;;3.35;1.60;;;;;;;;;;10389023;28;20140;-73
2023/12/26 18:55:14;;;;;;;6.72;2.92;;;;;;;;;;10393282;28;20494;-73
2023/12/26 19:00:19;;;;;;;8.30;3.08;;;;;;;;;;10380885;28;20052;-73
2023/12/26 19:05:22;;;;;;;7.55;2.95;;;;;;;;;;10394986;28;20042;-73
2023/12/26 19:10:25;;;;;;;4.82;2.38;;;;;;;;;;10396255;28;20153;-73
2023/12/26 19:15:30;;;;;;;4.13;2.15;;;;;;;;;;10399764;28;20042;-73
2023/12/26 19:20:33;;;;;;;8.23;3.28;;;;;;;;;;10398928;28;20444;-73
2023/12/26 19:25:41;;;;;;;6.18;2.65;;;;;;;;;;10393022;28;20434;-73
2023/12/26 19:30:48;;;;;;;6.35;2.83;;;;;;;;;;10393758;28;20046;-73
2023/12/26 19:35:51;;;;;;;4.72;2.60;;;;;;;;;;10392366;28;20519;-73
2023/12/26 19:40:56;;;;;;;5.28;2.40;;;;;;;;;;10373869;28;20045;-73
2023/12/26 19:46:00;;;;;;;8.68;3.53;;;;;;;;;;10390130;28;20057;-73
2023/12/26 19:51:04;;;;;;;7.72;4.78;;;;;;;;;;10397268;28;20045;-73
2023/12/26 19:56:07;;;;;;;11.80;5.78;;;;;;;;;;10395809;28;20061;-73
2023/12/26 20:01:12;;;;;;;15.52;8.52;;;;;;;;;;10388552;28;20046;-73
2023/12/26 20:06:18;;;;;;;14.65;7.47;;;;;;;;;;10383533;28;20054;-73
2023/12/26 20:11:22;;;;;;;11.30;6.40;;;;;;;;;;10386125;28;20054;-73
2023/12/26 20:16:26;;;;;;;10.75;5.75;;;;;;;;;;10393194;28;20419;-73
2023/12/26 20:21:30;;;;;;;7.07;4.40;;;;;;;;;;10394044;28;20435;-73
2023/12/26 20:26:34;;;;;;;10.70;6.13;;;;;;;;;;10379768;28;20041;-73
2023/12/26 20:31:38;;;;;;;10.02;6.57;;;;;;;;;;10382107;28;20071;-73
2023/12/26 20:36:43;;;;;;;10.27;5.97;;;;;;;;;;10389834;28;20045;-73
2023/12/26 20:41:49;;;;;;;10.85;5.47;;;;;;;;;;10383526;28;20049;-73
2023/12/26 20:46:53;;;;;;;8.40;5.05;;;;;;;;;;10371785;28;20045;-73
2023/12/26 20:51:58;;;;;;;9.43;5.45;;;;;;;;;;10379149;28;20045;-73
2023/12/26 20:57:04;;;;;;;8.50;4.50;;;;;;;;;;10381512;28;20556;-73
2023/12/26 21:02:10;;;;;;;8.20;4.07;;;;;;;;;;10390366;28;20060;-73
2023/12/26 21:07:13;;;;;;;8.85;4.43;;;;;;;;;;10374345;28;20042;-73
2023/12/26 21:12:17;;;;;;;7.38;4.15;;;;;;;;;;10364583;28;20044;-73
2023/12/26 21:17:21;;;;;;;6.60;3.28;;;;;;;;;;10376109;23;20045;-74
2023/12/26 21:22:24;;;;;;;7.85;4.00;;;;;;;;;;10350631;28;20049;-74
2023/12/26 21:27:28;;;;;;;7.25;4.10;;;;;;;;;;10353502;28;20116;-74
2023/12/26 21:32:33;;;;;;;8.63;4.20;;;;;;;;;;10350907;28;20041;-74
2023/12/26 21:37:36;;;;;;;7.20;4.40;;;;;;;;;;10354493;28;20557;-74
2023/12/26 21:42:40;;;;;;;7.72;4.60;;;;;;;;;;10366505;28;20483;-74
2023/12/26 21:47:45;;;;;;;7.82;3.83;;;;;;;;;;10368787;28;20056;-74
2023/12/26 21:52:51;;;;;;;6.90;3.75;;;;;;;;;;10368007;28;20128;-74
2023/12/26 21:57:55;;;;;;;;;;;;;;;;;;10370485;28;20050;-74
2023/12/26 22:03:00;;;;;;;6.95;3.80;;;;;;;;;;10368099;28;19925;-74
2023/12/26 22:08:04;;;;;;;6.22;3.58;;;;;;;;;;10368815;28;20606;-74
2023/12/26 22:13:08;;;;;;;5.35;3.50;;;;;;;;;;10365120;28;20034;-74
2023/12/26 22:18:12;;;;;;;4.40;2.72;;;;;;;;;;10365438;28;20613;-74
2023/12/26 22:23:16;;;;;;;3.35;2.42;;;;;;;;;;10368226;28;20137;-74
2023/12/26 22:28:19;;;;;;;7.53;2.78;;;;;;;;;;10368147;28;20164;-74
2023/12/26 22:33:23;;;;;;;4.72;2.65;;;;;;;;;;10368710;28;20050;-74
2023/12/26 22:38:27;;;;;;;4.32;2.08;;;;;;;;;;10368701;28;20610;-74
2023/12/26 22:43:33;;;;;;;6.28;2.60;;;;;;;;;;10371334;28;20041;-74
2023/12/26 22:48:37;;;;;;;5.82;2.42;;;;;;;;;;10364084;28;20053;-74
2023/12/26 22:53:42;;;;;;;5.20;2.17;;;;;;;;;;10362718;28;20034;-74
2023/12/26 22:58:45;;;;;;;4.25;2.00;;;;;;;;;;10359855;28;20034;-74
2023/12/26 23:03:50;;;;;;;4.32;2.03;;;;;;;;;;10361166;28;20049;-74
2023/12/26 23:08:53;;;;;;;4.88;2.10;;;;;;;;;;10361478;28;20545;-74
2023/12/26 23:13:57;;;;;;;4.43;2.15;;;;;;;;;;10361725;28;20407;-74
2023/12/26 23:19:01;;;;;;;5.18;2.20;;;;;;;;;;10360116;28;20537;-74
2023/12/26 23:24:05;;;;;;;3.70;1.73;;;;;;;;;;10361469;28;20065;-74
2023/12/26 23:29:09;;;;;;;4.85;2.38;;;;;;;;;;10361179;28;20045;-74
2023/12/26 23:34:13;;;;;;;4.15;2.65;;;;;;;;;;10360882;28;20045;-74
2023/12/26 23:39:16;;;;;;;4.43;2.47;;;;;;;;;;10358979;28;20466;-74
2023/12/26 23:44:20;;;;;;;3.47;1.98;;;;;;;;;;10359464;28;20052;-74
2023/12/26 23:49:25;;;;;;;3.95;2.00;;;;;;;;;;10363284;28;20053;-74
2023/12/26 23:54:28;;;;;;;3.58;1.85;;;;;;;;;;10363689;28;20092;-74
2023/12/26 23:59:31;;;;;;;4.55;2.10;;;;;;;;;;10358979;28;20069;-74
